This is the latest recevied weather packets stored in our database for station/object WP4PW. If no packets are shown the sender has not sent any weather packets the latest 10 day(s).
| Time | Temp. | Humidity | Pressure | Rain* | Wind** | Luminosity | Snow |
|---|---|---|---|---|---|---|---|
| 1777834622 | 30° C | 76% | 1020.3 hPa | 0 mm | - | 608 W/m² | - |
| 1777834316 | 30° C | 75% | 1020.2 hPa | 0 mm | - | 622 W/m² | - |
| 1777834012 | 30° C | 77% | 1020.4 hPa | 0 mm | - | 633 W/m² | - |
| 1777833709 | 30° C | 75% | 1020.4 hPa | 0 mm | - | 648 W/m² | - |
| 1777833404 | 30° C | 73% | 1020.3 hPa | 0 mm | - | 660 W/m² | - |
| 1777833102 | 30° C | 74% | 1020.5 hPa | 0 mm | - | 670 W/m² | - |
| 1777832800 | 30° C | 73% | 1020.4 hPa | 0 mm | - | 682 W/m² | - |
| 1777832498 | 29.44° C | 75% | 1020.3 hPa | 0 mm | - | 694 W/m² | - |
| 1777832195 | 30° C | 71% | 1020.6 hPa | 0 mm | - | 704 W/m² | - |
| 1777831892 | 30.56° C | 72% | 1020.5 hPa | 0 mm | - | 712 W/m² | - |
| 1777831589 | 30° C | 73% | 1020.5 hPa | 0 mm | - | 723 W/m² | - |
| 1777831287 | 30.56° C | 70% | 1020.7 hPa | 0 mm | - | 731 W/m² | - |
| 1777830984 | 30.56° C | 72% | 1020.5 hPa | 0 mm | - | 742 W/m² | - |
| 1777830680 | 30.56° C | 72% | 1020.8 hPa | 0 mm | - | 749 W/m² | - |
| 1777830377 | 30° C | 73% | 1020.9 hPa | 0 mm | - | 756 W/m² | - |
| 1777830075 | 29.44° C | 74% | 1021 hPa | 0 mm | - | 764 W/m² | - |
| 1777829769 | 30° C | 74% | 1021 hPa | 0 mm | - | 771 W/m² | - |
| 1777829466 | 30° C | 73% | 1021.1 hPa | 0 mm | - | 778 W/m² | - |
| 1777829162 | 30° C | 74% | 1021.2 hPa | 0 mm | - | 785 W/m² | - |
| 1777828860 | 31.11° C | 71% | 1021.2 hPa | 0 mm | - | 787 W/m² | - |
| 1777828550 | 30.56° C | 70% | 1021.4 hPa | 0 mm | - | 793 W/m² | - |
| 1777828248 | 30.56° C | 71% | 1021.4 hPa | 0 mm | - | 799 W/m² | - |
| 1777827944 | 31.11° C | 70% | 1021.7 hPa | 0 mm | - | 804 W/m² | - |
| 1777827642 | 30.56° C | 71% | 1021.5 hPa | 0 mm | - | 807 W/m² | - |
| 1777827339 | 30° C | 71% | 1021.6 hPa | 0 mm | - | 811 W/m² | - |
* Rain latest hour (hover to see other rain measurements)
** Current wind speed in m/s (hover to see current wind gust speed)